sensor_id;sensor_type;location;lat;lon;timestamp;P1;durP1;ratioP1;P2;durP2;ratioP2
44480;SDS011;30184;42.018;23.670;2023-12-04T00:01:04;14.38;;;4.80;;
44480;SDS011;30184;42.018;23.670;2023-12-04T00:03:33;11.07;;;5.05;;
44480;SDS011;30184;42.018;23.670;2023-12-04T00:06:06;5.78;;;3.05;;
44480;SDS011;30184;42.018;23.670;2023-12-04T00:08:35;8.50;;;2.67;;
44480;SDS011;30184;42.018;23.670;2023-12-04T00:11:05;10.00;;;3.08;;
44480;SDS011;30184;42.018;23.670;2023-12-04T00:13:35;7.63;;;2.75;;
44480;SDS011;30184;42.018;23.670;2023-12-04T00:16:04;8.75;;;2.20;;
44480;SDS011;30184;42.018;23.670;2023-12-04T00:18:34;16.05;;;6.00;;
44480;SDS011;30184;42.018;23.670;2023-12-04T00:21:05;13.15;;;5.85;;
44480;SDS011;30184;42.018;23.670;2023-12-04T00:23:35;21.63;;;9.20;;
44480;SDS011;30184;42.018;23.670;2023-12-04T00:26:04;23.42;;;9.15;;
44480;SDS011;30184;42.018;23.670;2023-12-04T00:28:35;17.42;;;7.20;;
44480;SDS011;30184;42.018;23.670;2023-12-04T00:31:04;14.93;;;6.80;;
44480;SDS011;30184;42.018;23.670;2023-12-04T00:33:34;12.95;;;5.88;;
44480;SDS011;30184;42.018;23.670;2023-12-04T00:36:04;21.52;;;6.95;;
44480;SDS011;30184;42.018;23.670;2023-12-04T00:38:35;16.77;;;7.20;;
44480;SDS011;30184;42.018;23.670;2023-12-04T00:41:04;15.60;;;5.97;;
44480;SDS011;30184;42.018;23.670;2023-12-04T00:43:34;11.15;;;5.35;;
44480;SDS011;30184;42.018;23.670;2023-12-04T00:46:03;13.57;;;6.00;;
44480;SDS011;30184;42.018;23.670;2023-12-04T00:48:32;11.43;;;5.50;;
44480;SDS011;30184;42.018;23.670;2023-12-04T00:51:01;15.20;;;6.90;;
44480;SDS011;30184;42.018;23.670;2023-12-04T00:53:32;12.77;;;6.05;;
44480;SDS011;30184;42.018;23.670;2023-12-04T00:56:01;18.52;;;6.78;;
44480;SDS011;30184;42.018;23.670;2023-12-04T00:58:30;15.05;;;6.47;;
44480;SDS011;30184;42.018;23.670;2023-12-04T01:00:59;16.08;;;6.68;;
44480;SDS011;30184;42.018;23.670;2023-12-04T01:03:28;15.68;;;6.18;;
44480;SDS011;30184;42.018;23.670;2023-12-04T01:06:00;24.88;;;8.68;;
44480;SDS011;30184;42.018;23.670;2023-12-04T01:08:29;23.23;;;9.18;;
44480;SDS011;30184;42.018;23.670;2023-12-04T01:11:00;19.45;;;8.93;;
44480;SDS011;30184;42.018;23.670;2023-12-04T01:13:29;21.63;;;9.70;;
44480;SDS011;30184;42.018;23.670;2023-12-04T01:15:58;17.90;;;7.55;;
44480;SDS011;30184;42.018;23.670;2023-12-04T01:18:27;15.43;;;7.45;;
44480;SDS011;30184;42.018;23.670;2023-12-04T01:20:56;14.68;;;6.55;;
44480;SDS011;30184;42.018;23.670;2023-12-04T01:23:25;18.70;;;7.90;;
44480;SDS011;30184;42.018;23.670;2023-12-04T01:25:56;14.10;;;6.85;;
44480;SDS011;30184;42.018;23.670;2023-12-04T01:28:25;18.17;;;8.95;;
44480;SDS011;30184;42.018;23.670;2023-12-04T01:30:54;17.52;;;7.03;;
44480;SDS011;30184;42.018;23.670;2023-12-04T01:33:23;25.40;;;7.97;;
44480;SDS011;30184;42.018;23.670;2023-12-04T01:35:52;21.95;;;7.90;;
44480;SDS011;30184;42.018;23.670;2023-12-04T01:38:21;20.45;;;7.57;;
44480;SDS011;30184;42.018;23.670;2023-12-04T01:40:51;21.05;;;7.15;;
44480;SDS011;30184;42.018;23.670;2023-12-04T01:43:21;10.65;;;5.65;;
44480;SDS011;30184;42.018;23.670;2023-12-04T01:45:50;17.35;;;5.88;;
44480;SDS011;30184;42.018;23.670;2023-12-04T01:48:20;17.98;;;5.95;;
44480;SDS011;30184;42.018;23.670;2023-12-04T01:50:51;12.70;;;6.05;;
44480;SDS011;30184;42.018;23.670;2023-12-04T01:53:20;12.23;;;6.40;;
44480;SDS011;30184;42.018;23.670;2023-12-04T01:55:50;12.85;;;5.55;;
44480;SDS011;30184;42.018;23.670;2023-12-04T01:58:20;8.43;;;3.72;;
44480;SDS011;30184;42.018;23.670;2023-12-04T02:00:49;4.35;;;2.38;;
44480;SDS011;30184;42.018;23.670;2023-12-04T02:03:18;6.40;;;2.90;;
44480;SDS011;30184;42.018;23.670;2023-12-04T02:05:48;7.68;;;2.60;;
44480;SDS011;30184;42.018;23.670;2023-12-04T02:08:20;5.50;;;2.35;;
44480;SDS011;30184;42.018;23.670;2023-12-04T02:10:50;5.47;;;2.58;;
44480;SDS011;30184;42.018;23.670;2023-12-04T02:13:19;4.07;;;2.25;;
44480;SDS011;30184;42.018;23.670;2023-12-04T02:15:52;4.90;;;2.42;;
44480;SDS011;30184;42.018;23.670;2023-12-04T02:18:23;3.92;;;2.15;;
44480;SDS011;30184;42.018;23.670;2023-12-04T02:20:53;3.75;;;2.10;;
44480;SDS011;30184;42.018;23.670;2023-12-04T02:23:22;3.63;;;1.77;;
44480;SDS011;30184;42.018;23.670;2023-12-04T02:25:52;3.65;;;1.90;;
44480;SDS011;30184;42.018;23.670;2023-12-04T02:28:27;5.47;;;2.53;;
44480;SDS011;30184;42.018;23.670;2023-12-04T02:30:59;5.55;;;2.70;;
44480;SDS011;30184;42.018;23.670;2023-12-04T02:33:31;5.88;;;3.10;;
44480;SDS011;30184;42.018;23.670;2023-12-04T02:36:03;5.78;;;2.58;;
44480;SDS011;30184;42.018;23.670;2023-12-04T02:38:35;5.32;;;2.42;;
44480;SDS011;30184;42.018;23.670;2023-12-04T02:41:06;6.97;;;2.38;;
44480;SDS011;30184;42.018;23.670;2023-12-04T02:43:35;11.27;;;3.38;;
44480;SDS011;30184;42.018;23.670;2023-12-04T02:46:05;8.15;;;2.90;;
44480;SDS011;30184;42.018;23.670;2023-12-04T02:48:34;8.27;;;3.15;;
44480;SDS011;30184;42.018;23.670;2023-12-04T02:51:04;3.70;;;1.83;;
44480;SDS011;30184;42.018;23.670;2023-12-04T02:53:34;5.45;;;1.90;;
44480;SDS011;30184;42.018;23.670;2023-12-04T02:56:03;5.45;;;2.55;;
44480;SDS011;30184;42.018;23.670;2023-12-04T02:58:35;3.35;;;1.73;;
44480;SDS011;30184;42.018;23.670;2023-12-04T03:01:04;6.55;;;2.47;;
44480;SDS011;30184;42.018;23.670;2023-12-04T03:03:34;5.47;;;2.58;;
44480;SDS011;30184;42.018;23.670;2023-12-04T03:06:03;4.13;;;1.95;;
44480;SDS011;30184;42.018;23.670;2023-12-04T03:08:33;6.88;;;1.70;;
44480;SDS011;30184;42.018;23.670;2023-12-04T03:11:02;2.63;;;1.63;;
44480;SDS011;30184;42.018;23.670;2023-12-04T03:13:33;3.63;;;2.30;;
44480;SDS011;30184;42.018;23.670;2023-12-04T03:16:02;2.65;;;1.75;;
44480;SDS011;30184;42.018;23.670;2023-12-04T03:18:32;5.45;;;2.13;;
44480;SDS011;30184;42.018;23.670;2023-12-04T03:21:01;2.72;;;1.83;;
44480;SDS011;30184;42.018;23.670;2023-12-04T03:23:30;5.07;;;2.20;;
44480;SDS011;30184;42.018;23.670;2023-12-04T03:25:59;5.95;;;2.40;;
44480;SDS011;30184;42.018;23.670;2023-12-04T03:28:29;9.02;;;2.22;;
44480;SDS011;30184;42.018;23.670;2023-12-04T03:30:59;8.70;;;3.30;;
44480;SDS011;30184;42.018;23.670;2023-12-04T03:33:28;6.95;;;3.53;;
44480;SDS011;30184;42.018;23.670;2023-12-04T03:35:58;3.10;;;1.90;;
44480;SDS011;30184;42.018;23.670;2023-12-04T03:38:27;4.30;;;2.13;;
44480;SDS011;30184;42.018;23.670;2023-12-04T03:40:57;10.63;;;3.10;;
44480;SDS011;30184;42.018;23.670;2023-12-04T03:43:26;7.78;;;3.10;;
44480;SDS011;30184;42.018;23.670;2023-12-04T03:45:55;4.60;;;2.50;;
44480;SDS011;30184;42.018;23.670;2023-12-04T03:48:25;3.63;;;1.90;;
44480;SDS011;30184;42.018;23.670;2023-12-04T03:50:54;5.95;;;2.60;;
44480;SDS011;30184;42.018;23.670;2023-12-04T03:53:23;3.95;;;2.17;;
44480;SDS011;30184;42.018;23.670;2023-12-04T03:55:52;3.92;;;2.22;;
44480;SDS011;30184;42.018;23.670;2023-12-04T03:58:21;5.13;;;2.80;;
44480;SDS011;30184;42.018;23.670;2023-12-04T04:00:50;7.10;;;3.60;;
44480;SDS011;30184;42.018;23.670;2023-12-04T04:03:20;5.45;;;2.55;;
44480;SDS011;30184;42.018;23.670;2023-12-04T04:05:50;5.68;;;3.20;;
44480;SDS011;30184;42.018;23.670;2023-12-04T04:08:19;4.20;;;2.55;;
44480;SDS011;30184;42.018;23.670;2023-12-04T04:10:48;5.65;;;2.55;;
44480;SDS011;30184;42.018;23.670;2023-12-04T04:13:17;6.32;;;2.65;;
44480;SDS011;30184;42.018;23.670;2023-12-04T04:15:46;9.60;;;3.35;;
44480;SDS011;30184;42.018;23.670;2023-12-04T04:18:15;5.35;;;2.75;;
44480;SDS011;30184;42.018;23.670;2023-12-04T04:20:45;3.95;;;1.85;;
44480;SDS011;30184;42.018;23.670;2023-12-04T04:23:15;6.18;;;2.28;;
44480;SDS011;30184;42.018;23.670;2023-12-04T04:25:44;5.30;;;2.28;;
44480;SDS011;30184;42.018;23.670;2023-12-04T04:28:13;4.30;;;1.75;;
44480;SDS011;30184;42.018;23.670;2023-12-04T04:30:42;6.75;;;2.42;;
44480;SDS011;30184;42.018;23.670;2023-12-04T04:33:12;10.27;;;3.08;;
44480;SDS011;30184;42.018;23.670;2023-12-04T04:35:41;7.68;;;2.70;;
44480;SDS011;30184;42.018;23.670;2023-12-04T04:38:10;7.22;;;3.05;;
44480;SDS011;30184;42.018;23.670;2023-12-04T04:40:40;5.80;;;2.03;;
44480;SDS011;30184;42.018;23.670;2023-12-04T04:43:11;6.88;;;3.47;;
44480;SDS011;30184;42.018;23.670;2023-12-04T04:45:40;5.00;;;2.88;;
44480;SDS011;30184;42.018;23.670;2023-12-04T04:48:09;6.50;;;3.08;;
44480;SDS011;30184;42.018;23.670;2023-12-04T04:50:38;7.88;;;3.45;;
44480;SDS011;30184;42.018;23.670;2023-12-04T04:53:07;5.57;;;3.45;;
44480;SDS011;30184;42.018;23.670;2023-12-04T04:55:36;11.20;;;4.40;;
44480;SDS011;30184;42.018;23.670;2023-12-04T04:58:06;7.65;;;3.85;;
44480;SDS011;30184;42.018;23.670;2023-12-04T05:00:35;6.68;;;3.70;;
44480;SDS011;30184;42.018;23.670;2023-12-04T05:03:04;8.20;;;3.70;;
44480;SDS011;30184;42.018;23.670;2023-12-04T05:05:34;3.22;;;2.65;;
44480;SDS011;30184;42.018;23.670;2023-12-04T05:08:03;5.85;;;3.08;;
44480;SDS011;30184;42.018;23.670;2023-12-04T05:10:32;8.73;;;3.13;;
44480;SDS011;30184;42.018;23.670;2023-12-04T05:13:01;4.93;;;2.85;;
44480;SDS011;30184;42.018;23.670;2023-12-04T05:15:32;4.15;;;2.45;;
44480;SDS011;30184;42.018;23.670;2023-12-04T05:18:01;4.80;;;1.90;;
44480;SDS011;30184;42.018;23.670;2023-12-04T05:20:31;6.25;;;3.28;;
44480;SDS011;30184;42.018;23.670;2023-12-04T05:23:00;4.85;;;2.85;;
44480;SDS011;30184;42.018;23.670;2023-12-04T05:25:29;11.05;;;4.20;;
44480;SDS011;30184;42.018;23.670;2023-12-04T05:28:00;17.83;;;5.53;;
44480;SDS011;30184;42.018;23.670;2023-12-04T05:30:29;14.30;;;5.88;;
44480;SDS011;30184;42.018;23.670;2023-12-04T05:33:00;9.15;;;4.47;;
44480;SDS011;30184;42.018;23.670;2023-12-04T05:35:29;3.90;;;2.67;;
44480;SDS011;30184;42.018;23.670;2023-12-04T05:38:01;7.88;;;2.95;;
44480;SDS011;30184;42.018;23.670;2023-12-04T05:40:30;4.40;;;2.70;;
44480;SDS011;30184;42.018;23.670;2023-12-04T05:42:59;9.45;;;5.18;;
44480;SDS011;30184;42.018;23.670;2023-12-04T05:45:28;8.15;;;4.45;;
44480;SDS011;30184;42.018;23.670;2023-12-04T05:47:57;4.25;;;2.58;;
44480;SDS011;30184;42.018;23.670;2023-12-04T05:50:27;12.73;;;5.45;;
44480;SDS011;30184;42.018;23.670;2023-12-04T05:52:57;8.00;;;3.75;;
44480;SDS011;30184;42.018;23.670;2023-12-04T05:55:26;11.27;;;5.80;;
44480;SDS011;30184;42.018;23.670;2023-12-04T05:57:55;10.75;;;4.57;;
44480;SDS011;30184;42.018;23.670;2023-12-04T06:00:24;35.92;;;11.00;;
44480;SDS011;30184;42.018;23.670;2023-12-04T06:02:53;21.30;;;8.55;;
44480;SDS011;30184;42.018;23.670;2023-12-04T06:05:23;10.85;;;4.57;;
44480;SDS011;30184;42.018;23.670;2023-12-04T06:07:53;14.63;;;5.63;;
44480;SDS011;30184;42.018;23.670;2023-12-04T06:10:23;8.93;;;3.45;;
44480;SDS011;30184;42.018;23.670;2023-12-04T06:12:52;6.47;;;3.60;;
44480;SDS011;30184;42.018;23.670;2023-12-04T06:15:21;6.15;;;2.95;;
44480;SDS011;30184;42.018;23.670;2023-12-04T06:17:50;11.20;;;4.72;;
44480;SDS011;30184;42.018;23.670;2023-12-04T06:20:19;8.45;;;3.72;;
44480;SDS011;30184;42.018;23.670;2023-12-04T06:22:48;4.72;;;2.55;;
44480;SDS011;30184;42.018;23.670;2023-12-04T06:25:20;20.30;;;4.10;;
44480;SDS011;30184;42.018;23.670;2023-12-04T06:27:50;16.63;;;5.88;;
44480;SDS011;30184;42.018;23.670;2023-12-04T06:30:20;19.33;;;10.45;;
44480;SDS011;30184;42.018;23.670;2023-12-04T06:32:49;18.38;;;7.40;;
44480;SDS011;30184;42.018;23.670;2023-12-04T06:35:19;17.77;;;9.52;;
44480;SDS011;30184;42.018;23.670;2023-12-04T06:37:49;16.42;;;9.45;;
44480;SDS011;30184;42.018;23.670;2023-12-04T06:40:23;9.43;;;5.80;;
44480;SDS011;30184;42.018;23.670;2023-12-04T06:42:53;8.77;;;3.95;;
44480;SDS011;30184;42.018;23.670;2023-12-04T06:45:23;17.58;;;5.85;;
44480;SDS011;30184;42.018;23.670;2023-12-04T06:47:52;9.40;;;4.00;;
44480;SDS011;30184;42.018;23.670;2023-12-04T06:50:22;16.60;;;7.15;;
44480;SDS011;30184;42.018;23.670;2023-12-04T06:52:51;18.85;;;7.32;;
44480;SDS011;30184;42.018;23.670;2023-12-04T06:55:20;14.70;;;6.40;;
44480;SDS011;30184;42.018;23.670;2023-12-04T06:57:51;15.25;;;8.68;;
44480;SDS011;30184;42.018;23.670;2023-12-04T07:00:20;15.13;;;6.68;;
44480;SDS011;30184;42.018;23.670;2023-12-04T07:02:49;9.82;;;5.57;;
44480;SDS011;30184;42.018;23.670;2023-12-04T07:05:19;16.55;;;6.05;;
44480;SDS011;30184;42.018;23.670;2023-12-04T07:07:48;10.30;;;4.90;;
44480;SDS011;30184;42.018;23.670;2023-12-04T07:10:17;10.40;;;4.97;;
44480;SDS011;30184;42.018;23.670;2023-12-04T07:12:48;24.80;;;11.27;;
44480;SDS011;30184;42.018;23.670;2023-12-04T07:15:17;13.55;;;7.15;;
44480;SDS011;30184;42.018;23.670;2023-12-04T07:17:46;11.90;;;4.85;;
44480;SDS011;30184;42.018;23.670;2023-12-04T07:20:15;13.82;;;6.07;;
44480;SDS011;30184;42.018;23.670;2023-12-04T07:22:44;8.27;;;4.97;;
44480;SDS011;30184;42.018;23.670;2023-12-04T07:25:13;11.13;;;5.80;;
44480;SDS011;30184;42.018;23.670;2023-12-04T07:27:43;11.00;;;5.25;;
44480;SDS011;30184;42.018;23.670;2023-12-04T07:30:14;15.60;;;5.60;;
44480;SDS011;30184;42.018;23.670;2023-12-04T07:32:45;10.75;;;4.45;;
44480;SDS011;30184;42.018;23.670;2023-12-04T07:35:15;12.90;;;5.25;;
44480;SDS011;30184;42.018;23.670;2023-12-04T07:37:45;9.30;;;5.45;;
44480;SDS011;30184;42.018;23.670;2023-12-04T07:40:14;14.02;;;5.13;;
44480;SDS011;30184;42.018;23.670;2023-12-04T07:42:44;9.00;;;5.28;;
44480;SDS011;30184;42.018;23.670;2023-12-04T07:45:14;10.45;;;4.53;;
44480;SDS011;30184;42.018;23.670;2023-12-04T07:47:43;8.60;;;3.42;;
44480;SDS011;30184;42.018;23.670;2023-12-04T07:50:12;9.40;;;4.90;;
44480;SDS011;30184;42.018;23.670;2023-12-04T07:52:42;10.77;;;5.82;;
44480;SDS011;30184;42.018;23.670;2023-12-04T07:55:11;9.13;;;4.57;;
44480;SDS011;30184;42.018;23.670;2023-12-04T07:57:40;8.20;;;3.75;;
44480;SDS011;30184;42.018;23.670;2023-12-04T08:00:10;13.30;;;5.75;;
44480;SDS011;30184;42.018;23.670;2023-12-04T08:02:41;20.30;;;7.60;;
44480;SDS011;30184;42.018;23.670;2023-12-04T08:05:12;14.95;;;6.70;;
44480;SDS011;30184;42.018;23.670;2023-12-04T08:07:41;16.83;;;7.72;;
44480;SDS011;30184;42.018;23.670;2023-12-04T08:10:10;16.08;;;6.20;;
44480;SDS011;30184;42.018;23.670;2023-12-04T08:12:39;10.35;;;5.72;;
44480;SDS011;30184;42.018;23.670;2023-12-04T08:15:09;13.13;;;5.13;;
44480;SDS011;30184;42.018;23.670;2023-12-04T08:17:38;11.55;;;5.45;;
44480;SDS011;30184;42.018;23.670;2023-12-04T08:20:09;11.60;;;5.47;;
44480;SDS011;30184;42.018;23.670;2023-12-04T08:22:42;19.60;;;7.40;;
44480;SDS011;30184;42.018;23.670;2023-12-04T08:25:12;17.58;;;7.28;;
44480;SDS011;30184;42.018;23.670;2023-12-04T08:27:41;18.60;;;8.32;;
44480;SDS011;30184;42.018;23.670;2023-12-04T08:30:10;13.63;;;6.50;;
44480;SDS011;30184;42.018;23.670;2023-12-04T08:32:39;22.55;;;7.03;;
44480;SDS011;30184;42.018;23.670;2023-12-04T08:35:10;13.45;;;5.97;;
44480;SDS011;30184;42.018;23.670;2023-12-04T08:37:39;11.07;;;5.55;;
44480;SDS011;30184;42.018;23.670;2023-12-04T08:40:08;7.68;;;4.20;;
44480;SDS011;30184;42.018;23.670;2023-12-04T08:42:38;19.83;;;7.07;;
44480;SDS011;30184;42.018;23.670;2023-12-04T08:45:09;11.43;;;4.75;;
44480;SDS011;30184;42.018;23.670;2023-12-04T08:47:38;12.23;;;5.32;;
44480;SDS011;30184;42.018;23.670;2023-12-04T08:50:09;8.88;;;5.25;;
44480;SDS011;30184;42.018;23.670;2023-12-04T08:52:38;7.28;;;3.80;;
44480;SDS011;30184;42.018;23.670;2023-12-04T08:55:09;12.07;;;5.00;;
44480;SDS011;30184;42.018;23.670;2023-12-04T08:57:39;8.38;;;4.68;;
44480;SDS011;30184;42.018;23.670;2023-12-04T09:00:09;11.38;;;4.10;;
44480;SDS011;30184;42.018;23.670;2023-12-04T09:02:38;7.38;;;3.80;;
44480;SDS011;30184;42.018;23.670;2023-12-04T09:05:11;8.27;;;4.65;;
44480;SDS011;30184;42.018;23.670;2023-12-04T09:07:41;14.27;;;5.93;;
44480;SDS011;30184;42.018;23.670;2023-12-04T09:10:25;8.27;;;3.33;;
44480;SDS011;30184;42.018;23.670;2023-12-04T09:12:56;7.07;;;3.72;;
44480;SDS011;30184;42.018;23.670;2023-12-04T09:15:25;14.18;;;4.82;;
44480;SDS011;30184;42.018;23.670;2023-12-04T09:17:54;7.57;;;4.15;;
44480;SDS011;30184;42.018;23.670;2023-12-04T09:20:25;7.05;;;2.17;;
44480;SDS011;30184;42.018;23.670;2023-12-04T09:22:54;14.80;;;6.25;;
44480;SDS011;30184;42.018;23.670;2023-12-04T09:25:26;10.45;;;4.10;;
44480;SDS011;30184;42.018;23.670;2023-12-04T09:27:56;8.05;;;2.95;;
44480;SDS011;30184;42.018;23.670;2023-12-04T09:30:25;7.10;;;3.85;;
44480;SDS011;30184;42.018;23.670;2023-12-04T09:32:54;7.28;;;3.20;;
44480;SDS011;30184;42.018;23.670;2023-12-04T09:35:25;10.93;;;4.68;;
44480;SDS011;30184;42.018;23.670;2023-12-04T09:37:54;17.30;;;6.72;;
44480;SDS011;30184;42.018;23.670;2023-12-04T09:40:24;71.55;;;17.38;;
44480;SDS011;30184;42.018;23.670;2023-12-04T09:42:53;2.10;;;1.58;;
44480;SDS011;30184;42.018;23.670;2023-12-04T09:45:23;23.77;;;8.27;;
44480;SDS011;30184;42.018;23.670;2023-12-04T09:47:53;103.07;;;29.27;;
44480;SDS011;30184;42.018;23.670;2023-12-04T09:50:25;43.80;;;18.33;;
44480;SDS011;30184;42.018;23.670;2023-12-04T09:52:54;36.03;;;15.82;;
44480;SDS011;30184;42.018;23.670;2023-12-04T09:55:26;14.85;;;6.43;;
44480;SDS011;30184;42.018;23.670;2023-12-04T09:57:55;21.85;;;8.15;;
44480;SDS011;30184;42.018;23.670;2023-12-04T10:00:25;23.73;;;9.90;;
44480;SDS011;30184;42.018;23.670;2023-12-04T10:02:56;16.52;;;8.93;;
44480;SDS011;30184;42.018;23.670;2023-12-04T10:05:28;29.45;;;13.77;;
44480;SDS011;30184;42.018;23.670;2023-12-04T10:07:58;17.48;;;9.27;;
44480;SDS011;30184;42.018;23.670;2023-12-04T10:10:27;23.83;;;12.05;;
44480;SDS011;30184;42.018;23.670;2023-12-04T10:12:56;29.65;;;11.70;;
44480;SDS011;30184;42.018;23.670;2023-12-04T10:15:25;39.28;;;13.93;;
44480;SDS011;30184;42.018;23.670;2023-12-04T10:17:55;10.68;;;4.88;;
44480;SDS011;30184;42.018;23.670;2023-12-04T10:20:24;19.05;;;10.02;;
44480;SDS011;30184;42.018;23.670;2023-12-04T10:22:57;18.17;;;7.72;;
44480;SDS011;30184;42.018;23.670;2023-12-04T10:25:28;32.78;;;12.73;;
44480;SDS011;30184;42.018;23.670;2023-12-04T10:28:06;11.15;;;4.72;;
44480;SDS011;30184;42.018;23.670;2023-12-04T10:30:37;18.67;;;6.32;;
44480;SDS011;30184;42.018;23.670;2023-12-04T10:33:07;16.92;;;6.05;;
44480;SDS011;30184;42.018;23.670;2023-12-04T10:35:37;6.57;;;1.95;;
44480;SDS011;30184;42.018;23.670;2023-12-04T10:38:08;13.95;;;5.95;;
44480;SDS011;30184;42.018;23.670;2023-12-04T10:40:37;11.18;;;4.38;;
44480;SDS011;30184;42.018;23.670;2023-12-04T10:43:10;14.05;;;5.72;;
44480;SDS011;30184;42.018;23.670;2023-12-04T10:45:41;11.45;;;4.35;;
44480;SDS011;30184;42.018;23.670;2023-12-04T10:48:15;8.27;;;2.97;;
44480;SDS011;30184;42.018;23.670;2023-12-04T10:50:46;8.95;;;3.05;;
44480;SDS011;30184;42.018;23.670;2023-12-04T10:53:17;10.07;;;4.07;;
44480;SDS011;30184;42.018;23.670;2023-12-04T10:55:46;16.73;;;5.45;;
44480;SDS011;30184;42.018;23.670;2023-12-04T10:58:18;160.30;;;42.72;;
44480;SDS011;30184;42.018;23.670;2023-12-04T11:00:48;53.72;;;19.30;;
44480;SDS011;30184;42.018;23.670;2023-12-04T11:03:25;17.88;;;5.05;;
44480;SDS011;30184;42.018;23.670;2023-12-04T11:06:07;10.90;;;2.88;;
44480;SDS011;30184;42.018;23.670;2023-12-04T11:08:41;9.05;;;3.33;;
44480;SDS011;30184;42.018;23.670;2023-12-04T11:11:12;4.40;;;2.15;;
44480;SDS011;30184;42.018;23.670;2023-12-04T11:13:45;2.50;;;1.40;;
44480;SDS011;30184;42.018;23.670;2023-12-04T11:16:20;12.80;;;3.90;;
44480;SDS011;30184;42.018;23.670;2023-12-04T11:18:55;4.43;;;2.10;;
44480;SDS011;30184;42.018;23.670;2023-12-04T11:21:31;3.97;;;1.60;;
44480;SDS011;30184;42.018;23.670;2023-12-04T11:24:02;8.05;;;2.63;;
44480;SDS011;30184;42.018;23.670;2023-12-04T11:26:34;4.78;;;2.65;;
44480;SDS011;30184;42.018;23.670;2023-12-04T11:29:04;5.22;;;1.83;;
44480;SDS011;30184;42.018;23.670;2023-12-04T11:31:34;5.70;;;1.30;;
44480;SDS011;30184;42.018;23.670;2023-12-04T11:34:03;2.85;;;1.55;;
44480;SDS011;30184;42.018;23.670;2023-12-04T11:36:33;2.60;;;1.45;;
44480;SDS011;30184;42.018;23.670;2023-12-04T11:39:05;10.77;;;3.35;;
44480;SDS011;30184;42.018;23.670;2023-12-04T11:41:40;6.55;;;2.17;;
44480;SDS011;30184;42.018;23.670;2023-12-04T11:44:11;2.72;;;1.52;;
44480;SDS011;30184;42.018;23.670;2023-12-04T11:49:32;5.53;;;2.63;;
44480;SDS011;30184;42.018;23.670;2023-12-04T11:52:03;3.05;;;1.48;;
44480;SDS011;30184;42.018;23.670;2023-12-04T11:57:34;6.07;;;2.88;;
44480;SDS011;30184;42.018;23.670;2023-12-04T12:00:08;5.40;;;2.75;;
44480;SDS011;30184;42.018;23.670;2023-12-04T12:03:02;35.08;;;13.85;;
44480;SDS011;30184;42.018;23.670;2023-12-04T12:05:33;148.27;;;35.00;;
44480;SDS011;30184;42.018;23.670;2023-12-04T12:08:03;197.07;;;49.55;;
44480;SDS011;30184;42.018;23.670;2023-12-04T12:10:35;5.95;;;3.88;;
44480;SDS011;30184;42.018;23.670;2023-12-04T12:13:04;3.95;;;2.70;;
44480;SDS011;30184;42.018;23.670;2023-12-04T12:15:33;13.18;;;4.97;;
44480;SDS011;30184;42.018;23.670;2023-12-04T12:18:02;6.32;;;2.47;;
44480;SDS011;30184;42.018;23.670;2023-12-04T12:20:36;6.93;;;3.28;;
44480;SDS011;30184;42.018;23.670;2023-12-04T12:23:05;11.68;;;6.05;;
44480;SDS011;30184;42.018;23.670;2023-12-04T12:25:36;12.23;;;5.13;;
44480;SDS011;30184;42.018;23.670;2023-12-04T12:28:05;14.77;;;6.70;;
44480;SDS011;30184;42.018;23.670;2023-12-04T12:30:35;20.02;;;7.03;;
44480;SDS011;30184;42.018;23.670;2023-12-04T12:33:04;9.55;;;5.05;;
44480;SDS011;30184;42.018;23.670;2023-12-04T12:35:33;16.77;;;4.22;;
44480;SDS011;30184;42.018;23.670;2023-12-04T12:38:02;14.77;;;4.82;;
44480;SDS011;30184;42.018;23.670;2023-12-04T12:40:32;15.60;;;6.03;;
44480;SDS011;30184;42.018;23.670;2023-12-04T12:43:06;24.38;;;7.07;;
44480;SDS011;30184;42.018;23.670;2023-12-04T12:45:39;14.27;;;5.55;;
44480;SDS011;30184;42.018;23.670;2023-12-04T12:48:10;9.98;;;3.70;;
44480;SDS011;30184;42.018;23.670;2023-12-04T12:50:39;8.30;;;4.00;;
44480;SDS011;30184;42.018;23.670;2023-12-04T12:53:10;11.65;;;5.10;;
44480;SDS011;30184;42.018;23.670;2023-12-04T12:55:40;8.52;;;4.20;;
44480;SDS011;30184;42.018;23.670;2023-12-04T12:58:11;10.95;;;5.18;;
44480;SDS011;30184;42.018;23.670;2023-12-04T13:00:41;31.52;;;15.70;;
44480;SDS011;30184;42.018;23.670;2023-12-04T13:03:14;15.75;;;7.50;;
44480;SDS011;30184;42.018;23.670;2023-12-04T13:05:44;27.70;;;10.73;;
44480;SDS011;30184;42.018;23.670;2023-12-04T13:08:14;24.02;;;9.95;;
44480;SDS011;30184;42.018;23.670;2023-12-04T13:10:43;16.42;;;7.18;;
44480;SDS011;30184;42.018;23.670;2023-12-04T13:13:13;20.27;;;6.70;;
44480;SDS011;30184;42.018;23.670;2023-12-04T13:15:43;16.65;;;7.05;;
44480;SDS011;30184;42.018;23.670;2023-12-04T13:18:12;14.88;;;6.80;;
44480;SDS011;30184;42.018;23.670;2023-12-04T13:20:41;8.13;;;4.50;;
44480;SDS011;30184;42.018;23.670;2023-12-04T13:23:10;10.80;;;5.40;;
44480;SDS011;30184;42.018;23.670;2023-12-04T13:25:40;22.92;;;9.13;;
44480;SDS011;30184;42.018;23.670;2023-12-04T13:28:09;41.13;;;13.02;;
44480;SDS011;30184;42.018;23.670;2023-12-04T13:30:43;20.83;;;8.60;;
44480;SDS011;30184;42.018;23.670;2023-12-04T13:33:12;20.05;;;7.93;;
44480;SDS011;30184;42.018;23.670;2023-12-04T13:35:41;14.25;;;6.38;;
44480;SDS011;30184;42.018;23.670;2023-12-04T13:38:10;24.55;;;10.48;;
44480;SDS011;30184;42.018;23.670;2023-12-04T13:40:42;21.02;;;8.98;;
44480;SDS011;30184;42.018;23.670;2023-12-04T13:43:26;15.63;;;8.05;;
44480;SDS011;30184;42.018;23.670;2023-12-04T13:46:14;41.25;;;14.68;;
44480;SDS011;30184;42.018;23.670;2023-12-04T13:48:44;39.85;;;17.15;;
44480;SDS011;30184;42.018;23.670;2023-12-04T13:51:13;27.75;;;12.75;;
44480;SDS011;30184;42.018;23.670;2023-12-04T13:53:42;22.85;;;12.02;;
44480;SDS011;30184;42.018;23.670;2023-12-04T13:56:14;25.90;;;9.80;;
44480;SDS011;30184;42.018;23.670;2023-12-04T13:58:55;23.70;;;9.70;;
44480;SDS011;30184;42.018;23.670;2023-12-04T14:01:26;22.02;;;10.63;;
44480;SDS011;30184;42.018;23.670;2023-12-04T14:03:57;38.13;;;15.60;;
44480;SDS011;30184;42.018;23.670;2023-12-04T14:06:39;43.05;;;16.88;;
44480;SDS011;30184;42.018;23.670;2023-12-04T14:09:52;33.97;;;14.57;;
44480;SDS011;30184;42.018;23.670;2023-12-04T14:13:14;62.78;;;22.67;;
44480;SDS011;30184;42.018;23.670;2023-12-04T14:19:45;46.78;;;22.10;;
44480;SDS011;30184;42.018;23.670;2023-12-04T14:22:14;50.10;;;22.42;;
44480;SDS011;30184;42.018;23.670;2023-12-04T14:24:43;52.17;;;25.23;;
44480;SDS011;30184;42.018;23.670;2023-12-04T14:27:13;55.78;;;22.70;;
44480;SDS011;30184;42.018;23.670;2023-12-04T14:29:42;36.05;;;15.38;;
44480;SDS011;30184;42.018;23.670;2023-12-04T14:32:12;38.63;;;17.65;;
44480;SDS011;30184;42.018;23.670;2023-12-04T14:34:41;41.35;;;18.83;;
44480;SDS011;30184;42.018;23.670;2023-12-04T14:37:12;64.53;;;23.25;;
44480;SDS011;30184;42.018;23.670;2023-12-04T14:39:41;35.40;;;17.80;;
44480;SDS011;30184;42.018;23.670;2023-12-04T14:42:10;35.67;;;16.35;;
44480;SDS011;30184;42.018;23.670;2023-12-04T14:44:39;44.92;;;19.63;;
44480;SDS011;30184;42.018;23.670;2023-12-04T14:47:08;66.10;;;24.75;;
44480;SDS011;30184;42.018;23.670;2023-12-04T14:49:39;60.72;;;22.50;;
44480;SDS011;30184;42.018;23.670;2023-12-04T14:52:08;116.57;;;39.53;;
44480;SDS011;30184;42.018;23.670;2023-12-04T14:54:40;76.50;;;34.70;;